createdAt,value
2018-05-03T00:00:27.865Z,65.2
2018-05-03T00:01:29.226Z,64.8
2018-05-03T00:02:30.588Z,64.8
2018-05-03T00:03:31.932Z,64.8
2018-05-03T00:04:33.286Z,64.8
2018-05-03T00:05:34.642Z,65.1
2018-05-03T00:06:35.989Z,65.5
2018-05-03T00:07:37.346Z,65.3
2018-05-03T00:08:38.718Z,65.2
2018-05-03T00:09:40.074Z,65.5
2018-05-03T00:10:41.416Z,65.3
2018-05-03T00:11:42.775Z,65.4
2018-05-03T00:12:44.120Z,65.8
2018-05-03T00:13:45.489Z,65.7
2018-05-03T00:14:46.879Z,65.6
2018-05-03T00:15:48.287Z,65.3
2018-05-03T00:16:49.625Z,65.7
2018-05-03T00:17:50.992Z,65.6
2018-05-03T00:18:52.347Z,65.5
2018-05-03T00:19:53.695Z,65.8
2018-05-03T00:20:55.047Z,65.5
2018-05-03T00:21:56.402Z,65.8
2018-05-03T00:22:57.828Z,65.1
2018-05-03T00:23:59.175Z,65.3
2018-05-03T00:25:00.541Z,65.4
2018-05-03T00:26:01.922Z,65.4
2018-05-03T00:27:03.297Z,65.5
2018-05-03T00:28:04.664Z,65.1
2018-05-03T00:29:06.024Z,65.1
2018-05-03T00:30:07.370Z,65.1
2018-05-03T00:31:08.726Z,65.1
2018-05-03T00:32:10.097Z,65.1
2018-05-03T00:33:11.439Z,65.2
2018-05-03T00:34:12.789Z,65.2
2018-05-03T00:35:14.144Z,65.1
2018-05-03T00:36:15.496Z,64.9
2018-05-03T00:37:16.853Z,65.2
2018-05-03T00:38:18.220Z,65.2
2018-05-03T00:39:19.577Z,65.1
2018-05-03T00:40:20.931Z,64.9
2018-05-03T00:41:22.348Z,65.1
2018-05-03T00:42:23.634Z,65.3
2018-05-03T00:43:24.990Z,65.0
2018-05-03T00:44:26.346Z,65.2
2018-05-03T00:45:27.702Z,65.5
2018-05-03T00:46:29.073Z,65.3
2018-05-03T00:47:30.429Z,65.5
2018-05-03T00:48:31.784Z,65.1
2018-05-03T00:49:33.144Z,65.4
2018-05-03T00:50:34.497Z,64.8
2018-05-03T00:51:36.041Z,64.9
2018-05-03T00:52:37.398Z,64.6
2018-05-03T00:53:38.750Z,64.4
2018-05-03T00:54:40.112Z,64.7
2018-05-03T00:55:41.457Z,64.7
2018-05-03T00:56:42.845Z,64.4
2018-05-03T00:57:44.196Z,64.4
2018-05-03T00:58:45.554Z,64.3
2018-05-03T00:59:46.910Z,64.5
2018-05-03T01:00:48.285Z,64.8
2018-05-03T01:01:49.638Z,64.8
2018-05-03T01:02:50.993Z,64.6
2018-05-03T01:03:52.342Z,64.8
2018-05-03T01:04:53.705Z,64.8
2018-05-03T01:05:55.063Z,64.8
2018-05-03T01:06:56.414Z,64.5
2018-05-03T01:07:57.801Z,64.6
2018-05-03T01:08:59.156Z,64.5
2018-05-03T01:10:00.506Z,64.5
2018-05-03T01:11:01.867Z,64.7
2018-05-03T01:12:03.214Z,64.3
2018-05-03T01:13:04.568Z,64.5
2018-05-03T01:14:05.925Z,64.9
2018-05-03T01:15:07.277Z,64.8
2018-05-03T01:16:08.626Z,64.8
2018-05-03T01:17:09.977Z,64.8
2018-05-03T01:18:11.332Z,64.5
2018-05-03T01:19:12.692Z,64.7
2018-05-03T01:20:14.048Z,64.5
2018-05-03T01:21:15.400Z,64.5
2018-05-03T01:22:16.759Z,64.5
2018-05-03T01:23:18.111Z,64.8
2018-05-03T01:24:19.495Z,64.6
2018-05-03T01:25:20.851Z,64.8
2018-05-03T01:26:22.199Z,65.3
2018-05-03T01:27:23.570Z,65.1
2018-05-03T01:28:24.923Z,65.4
2018-05-03T01:29:26.278Z,65.1
2018-05-03T01:30:27.687Z,65.0
2018-05-03T01:31:29.047Z,65.5
2018-05-03T01:32:30.402Z,65.6
2018-05-03T01:33:31.757Z,65.4
2018-05-03T01:34:33.113Z,65.2
2018-05-03T01:35:34.468Z,65.4
2018-05-03T01:36:35.836Z,65.3
2018-05-03T01:37:37.178Z,65.5
2018-05-03T01:38:38.536Z,65.5
2018-05-03T01:39:39.893Z,65.4
2018-05-03T01:40:41.250Z,65.2
2018-05-03T01:41:42.611Z,65.3
2018-05-03T01:42:43.962Z,65.6
2018-05-03T01:43:45.321Z,65.8
2018-05-03T01:44:46.673Z,65.2
2018-05-03T01:45:48.023Z,65.3
2018-05-03T01:46:49.382Z,65.5
2018-05-03T01:47:50.762Z,65.8
2018-05-03T01:48:52.122Z,65.7
2018-05-03T01:49:53.470Z,65.6
2018-05-03T01:50:54.835Z,65.3
2018-05-03T01:51:56.190Z,65.6
2018-05-03T01:52:57.530Z,65.4
2018-05-03T01:53:58.893Z,65.8
2018-05-03T01:55:00.243Z,65.4
2018-05-03T01:56:01.600Z,66.1
2018-05-03T01:57:02.953Z,66.1
2018-05-03T01:58:04.302Z,66.2
2018-05-03T01:59:05.700Z,66.4
2018-05-03T02:00:07.049Z,66.3
2018-05-03T02:01:08.400Z,66.3
2018-05-03T02:02:09.757Z,66.4
2018-05-03T02:03:11.117Z,66.4
2018-05-03T02:04:12.468Z,66.1
2018-05-03T02:05:13.821Z,65.6
2018-05-03T02:06:15.172Z,65.6
2018-05-03T02:07:16.531Z,66.0
2018-05-03T02:08:17.898Z,65.6
2018-05-03T02:09:19.251Z,65.2
2018-05-03T02:10:20.610Z,65.5
2018-05-03T02:11:21.969Z,65.8
2018-05-03T02:12:23.323Z,65.6
2018-05-03T02:13:24.682Z,66.1
2018-05-03T02:14:26.028Z,66.1
2018-05-03T02:15:27.379Z,66.1
2018-05-03T02:16:28.739Z,66.3
2018-05-03T02:17:30.095Z,66.4
2018-05-03T02:18:31.458Z,66.6
2018-05-03T02:19:32.821Z,66.5
2018-05-03T02:20:34.170Z,66.6
2018-05-03T02:21:35.665Z,66.5
2018-05-03T02:22:37.005Z,66.6
2018-05-03T02:23:38.350Z,66.8
2018-05-03T02:24:39.710Z,66.6
2018-05-03T02:25:41.113Z,66.8
2018-05-03T02:26:42.471Z,66.6
2018-05-03T02:27:43.819Z,66.5
2018-05-03T02:28:45.195Z,66.6
2018-05-03T02:29:46.547Z,66.5
2018-05-03T02:30:47.905Z,66.6
2018-05-03T02:31:49.258Z,66.5
2018-05-03T02:32:50.612Z,66.9
2018-05-03T02:33:51.990Z,67.0
2018-05-03T02:34:53.361Z,67.1
2018-05-03T02:35:54.704Z,66.6
2018-05-03T02:36:56.057Z,67.1
2018-05-03T02:37:57.415Z,66.9
2018-05-03T02:38:58.767Z,66.9
2018-05-03T02:40:00.114Z,66.8
2018-05-03T02:41:01.468Z,66.9
2018-05-03T02:42:02.823Z,67.4
2018-05-03T02:43:04.179Z,67.2
2018-05-03T02:44:05.571Z,67.6
2018-05-03T02:45:06.936Z,67.5
2018-05-03T02:46:08.301Z,67.4
2018-05-03T02:47:09.656Z,66.8
2018-05-03T02:48:11.007Z,66.7
2018-05-03T02:49:12.360Z,67.6
2018-05-03T02:50:13.716Z,67.3
2018-05-03T02:51:15.070Z,67.5
2018-05-03T02:52:16.415Z,67.7
2018-05-03T02:53:17.775Z,67.4
2018-05-03T02:54:19.134Z,67.2
2018-05-03T02:55:20.571Z,67.7
2018-05-03T02:56:21.846Z,68.1
2018-05-03T02:57:23.204Z,67.9
2018-05-03T02:58:24.556Z,67.8
2018-05-03T02:59:25.903Z,67.9
2018-05-03T03:00:27.263Z,67.6
2018-05-03T03:01:28.620Z,67.4
2018-05-03T03:02:29.980Z,67.7
2018-05-03T03:03:31.330Z,67.4
2018-05-03T03:04:32.687Z,67.3
2018-05-03T03:05:34.036Z,67.5
2018-05-03T03:06:35.454Z,67.4
2018-05-03T03:07:36.845Z,68.0
2018-05-03T03:08:38.247Z,67.8
2018-05-03T03:09:39.683Z,68.1
2018-05-03T03:10:40.923Z,68.2
2018-05-03T03:11:42.276Z,68.4
2018-05-03T03:12:43.628Z,68.1
2018-05-03T03:13:44.992Z,68.2
2018-05-03T03:14:46.348Z,68.2
2018-05-03T03:15:47.713Z,68.4
2018-05-03T03:16:49.057Z,68.4
2018-05-03T03:17:50.429Z,68.2
2018-05-03T03:18:51.775Z,68.4
2018-05-03T03:19:53.130Z,68.4
2018-05-03T03:20:54.495Z,68.4
2018-05-03T03:21:55.883Z,68.5
2018-05-03T03:22:57.202Z,68.5
2018-05-03T03:23:58.562Z,68.4
2018-05-03T03:24:59.926Z,68.2
2018-05-03T03:26:01.320Z,68.4
2018-05-03T03:27:02.673Z,68.7
2018-05-03T03:28:04.029Z,68.5
2018-05-03T03:29:05.384Z,68.5
2018-05-03T03:30:06.754Z,69.0
2018-05-03T03:31:08.103Z,69.0
2018-05-03T03:32:09.487Z,69.1
2018-05-03T03:33:10.840Z,69.2
2018-05-03T03:34:12.200Z,69.4
2018-05-03T03:35:13.545Z,69.2
2018-05-03T03:36:14.898Z,69.2
2018-05-03T03:37:16.259Z,69.1
2018-05-03T03:38:17.623Z,69.2
2018-05-03T03:39:18.963Z,69.1
2018-05-03T03:40:20.336Z,69.1
2018-05-03T03:41:21.706Z,69.0
2018-05-03T03:42:23.069Z,69.2
2018-05-03T03:43:24.447Z,69.0
2018-05-03T03:44:25.814Z,69.4
2018-05-03T03:45:27.170Z,69.3
2018-05-03T03:46:28.518Z,69.2
2018-05-03T03:47:29.878Z,69.1
2018-05-03T03:48:31.240Z,69.5
2018-05-03T03:49:32.595Z,69.3
2018-05-03T03:50:33.969Z,69.3
2018-05-03T03:51:35.330Z,69.1
2018-05-03T03:52:36.686Z,69.1
2018-05-03T03:53:38.039Z,69.2
2018-05-03T03:54:39.452Z,69.3
2018-05-03T03:55:40.762Z,69.6
2018-05-03T03:56:42.124Z,69.2
2018-05-03T03:57:43.499Z,69.2
2018-05-03T03:58:44.865Z,69.0
2018-05-03T03:59:46.229Z,69.2
2018-05-03T04:00:47.594Z,69.5
2018-05-03T04:01:48.949Z,69.5
2018-05-03T04:02:50.328Z,69.6
2018-05-03T04:03:51.683Z,69.7
2018-05-03T04:04:53.067Z,69.7
2018-05-03T04:05:54.429Z,69.8
2018-05-03T04:06:55.788Z,70.0
2018-05-03T04:07:57.149Z,70.1
2018-05-03T04:08:58.501Z,70.2
2018-05-03T04:09:59.875Z,70.2
2018-05-03T04:11:01.228Z,69.9
2018-05-03T04:12:02.591Z,70.2
2018-05-03T04:13:03.943Z,70.2
2018-05-03T04:14:05.304Z,70.2
2018-05-03T04:15:06.665Z,69.9
2018-05-03T04:16:08.023Z,69.9
2018-05-03T04:17:09.429Z,70.5
2018-05-03T04:18:10.844Z,70.3
2018-05-03T04:19:12.204Z,70.2
2018-05-03T04:20:13.569Z,70.2
2018-05-03T04:21:14.932Z,70.4
2018-05-03T04:22:16.379Z,70.4
2018-05-03T04:23:17.666Z,70.2
2018-05-03T04:24:19.017Z,70.2
2018-05-03T04:25:20.376Z,70.2
2018-05-03T04:26:21.732Z,70.2
2018-05-03T04:27:23.095Z,70.2
2018-05-03T04:28:24.457Z,70.2
2018-05-03T04:29:25.809Z,70.3
2018-05-03T04:30:27.174Z,70.3
2018-05-03T04:31:28.529Z,70.3
2018-05-03T04:32:29.896Z,70.2
2018-05-03T04:33:31.253Z,70.8
2018-05-03T04:34:32.701Z,70.7
2018-05-03T04:35:33.973Z,70.7
2018-05-03T04:36:36.009Z,70.6
2018-05-03T04:37:37.349Z,70.8
2018-05-03T04:38:38.706Z,70.8
2018-05-03T04:39:40.066Z,70.9
2018-05-03T04:40:41.444Z,71.3
2018-05-03T04:41:42.813Z,71.1
2018-05-03T04:42:44.179Z,71.0
2018-05-03T04:43:45.612Z,71.0
2018-05-03T04:44:46.977Z,71.2
2018-05-03T04:45:48.336Z,71.3
2018-05-03T04:46:49.779Z,71.2
2018-05-03T04:47:51.077Z,71.2
2018-05-03T04:48:52.428Z,71.1
2018-05-03T04:49:53.789Z,70.8
2018-05-03T04:50:55.175Z,70.8
2018-05-03T04:51:56.547Z,71.2
2018-05-03T04:52:57.911Z,71.1
2018-05-03T04:53:59.272Z,71.2
2018-05-03T04:55:00.635Z,71.2
2018-05-03T04:56:02.000Z,71.2
2018-05-03T04:57:03.357Z,71.2
2018-05-03T04:58:04.713Z,71.3
2018-05-03T04:59:06.066Z,71.4
2018-05-03T05:00:07.430Z,71.4
2018-05-03T05:01:08.798Z,71.8
2018-05-03T05:02:10.161Z,71.7
2018-05-03T05:03:11.550Z,71.9
2018-05-03T05:04:12.914Z,71.9
2018-05-03T05:05:14.272Z,71.8
2018-05-03T05:06:15.656Z,71.8
2018-05-03T05:07:17.018Z,71.8
2018-05-03T05:08:18.376Z,71.5
2018-05-03T05:09:19.737Z,71.6
2018-05-03T05:10:21.112Z,71.3
2018-05-03T05:11:22.471Z,71.3
2018-05-03T05:12:23.856Z,71.3
2018-05-03T05:13:25.237Z,71.2
2018-05-03T05:14:26.598Z,71.3
2018-05-03T05:15:28.022Z,71.2
2018-05-03T05:16:29.829Z,71.2
2018-05-03T05:17:31.244Z,71.2
2018-05-03T05:18:32.764Z,71.5
2018-05-03T05:19:34.744Z,71.1
2018-05-03T05:20:36.319Z,70.9
2018-05-03T05:21:37.704Z,71.5
2018-05-03T05:22:39.109Z,71.6
2018-05-03T05:23:40.506Z,71.6
2018-05-03T05:24:41.910Z,71.9
2018-05-03T05:25:43.288Z,71.6
2018-05-03T05:26:44.747Z,71.7
2018-05-03T05:27:46.193Z,71.6
2018-05-03T05:28:47.678Z,71.6
2018-05-03T05:29:49.188Z,71.4
2018-05-03T05:30:50.995Z,71.6
2018-05-03T05:31:52.744Z,71.3
2018-05-03T05:32:54.329Z,71.5
2018-05-03T05:33:55.776Z,71.4
2018-05-03T05:34:57.146Z,71.6
2018-05-03T05:35:58.588Z,72.1
2018-05-03T05:36:59.983Z,72.2
2018-05-03T05:38:01.424Z,71.9
2018-05-03T05:39:02.867Z,72.5
2018-05-03T05:40:04.232Z,72.4
2018-05-03T05:41:05.649Z,72.5
2018-05-03T05:42:07.028Z,72.2
2018-05-03T05:43:08.493Z,72.3
2018-05-03T05:44:09.906Z,72.2
2018-05-03T05:45:11.341Z,72.6
2018-05-03T05:46:12.715Z,73.1
2018-05-03T05:47:14.148Z,72.7
2018-05-03T05:48:15.536Z,72.8
2018-05-03T05:49:16.915Z,72.8
2018-05-03T05:50:18.388Z,72.6
2018-05-03T05:51:19.836Z,72.4
2018-05-03T05:52:21.207Z,72.7
2018-05-03T05:53:22.676Z,72.9
2018-05-03T05:54:24.056Z,72.8
2018-05-03T05:55:25.481Z,72.9
2018-05-03T05:56:26.891Z,73.0
2018-05-03T05:57:28.337Z,72.8
2018-05-03T05:58:29.826Z,72.9
2018-05-03T05:59:31.237Z,72.9
2018-05-03T06:00:32.658Z,73.3
2018-05-03T06:01:34.080Z,73.3
2018-05-03T06:02:35.493Z,73.3
2018-05-03T06:03:36.897Z,73.5
2018-05-03T06:04:38.437Z,73.3
2018-05-03T06:05:39.847Z,73.4
2018-05-03T06:06:41.256Z,73.4
2018-05-03T06:07:42.641Z,73.3
2018-05-03T06:08:44.077Z,73.1
2018-05-03T06:09:45.496Z,73.3
2018-05-03T06:10:46.894Z,73.3
2018-05-03T06:11:48.374Z,73.5
2018-05-03T06:12:50.731Z,73.9
2018-05-03T06:13:52.332Z,73.4
2018-05-03T06:14:53.763Z,73.3
2018-05-03T06:15:55.207Z,73.5
2018-05-03T06:16:56.903Z,73.7
2018-05-03T06:17:58.626Z,73.6
2018-05-03T06:19:00.195Z,73.9
2018-05-03T06:20:01.698Z,73.5
2018-05-03T06:21:03.220Z,73.5
2018-05-03T06:22:04.604Z,73.6
2018-05-03T06:23:06.020Z,73.5
2018-05-03T06:24:07.426Z,73.2
2018-05-03T06:25:08.852Z,73.4
2018-05-03T06:26:10.341Z,73.4
2018-05-03T06:27:11.760Z,73.2
2018-05-03T06:28:13.161Z,73.3
2018-05-03T06:29:14.553Z,73.2
2018-05-03T06:30:16.209Z,74.1
2018-05-03T06:31:17.665Z,73.6
2018-05-03T06:32:19.247Z,73.8
2018-05-03T06:33:20.651Z,73.9
2018-05-03T06:34:22.268Z,73.3
2018-05-03T06:35:23.910Z,73.7
2018-05-03T06:36:25.481Z,73.6
2018-05-03T06:37:27.088Z,73.6
2018-05-03T06:38:28.685Z,73.7
2018-05-03T06:39:30.178Z,73.8
2018-05-03T06:40:31.640Z,73.8
2018-05-03T06:41:33.034Z,73.8
2018-05-03T06:42:34.468Z,73.4
2018-05-03T06:43:35.920Z,73.2
2018-05-03T06:44:37.338Z,73.6
2018-05-03T06:45:38.914Z,73.2
2018-05-03T06:46:40.418Z,72.8
2018-05-03T06:47:41.846Z,72.9
2018-05-03T06:48:43.257Z,72.9
2018-05-03T06:49:44.680Z,72.6
2018-05-03T06:50:46.105Z,73.1
2018-05-03T06:51:47.669Z,72.5
2018-05-03T06:52:49.424Z,72.1
2018-05-03T06:53:51.203Z,72.2
2018-05-03T06:54:52.745Z,71.4
2018-05-03T06:55:54.228Z,71.7
2018-05-03T06:56:55.786Z,71.4
2018-05-03T06:57:57.320Z,70.7
2018-05-03T06:58:58.818Z,70.8
2018-05-03T07:00:00.301Z,70.4
2018-05-03T07:01:01.695Z,70.5
2018-05-03T07:02:03.081Z,70.1
2018-05-03T07:03:04.493Z,70.2
2018-05-03T07:04:05.967Z,70.0
2018-05-03T07:05:07.409Z,70.0
2018-05-03T07:06:08.843Z,70.0
2018-05-03T07:07:10.395Z,69.9
2018-05-03T07:08:11.853Z,69.4
2018-05-03T07:09:13.285Z,69.4
2018-05-03T07:10:14.703Z,69.0
2018-05-03T07:11:16.165Z,68.9
2018-05-03T07:12:17.585Z,68.6
2018-05-03T07:13:19.042Z,68.6
2018-05-03T07:14:20.474Z,68.3
2018-05-03T07:15:21.853Z,67.9
2018-05-03T07:16:23.348Z,67.4
2018-05-03T07:17:24.702Z,67.9
2018-05-03T07:18:26.160Z,67.2
2018-05-03T07:19:27.602Z,67.3
2018-05-03T07:20:29.213Z,66.9
2018-05-03T07:21:30.651Z,67.1
2018-05-03T07:22:32.112Z,66.8
2018-05-03T07:23:33.621Z,66.4
2018-05-03T07:24:35.246Z,66.6
2018-05-03T07:25:36.745Z,66.0
2018-05-03T07:26:38.210Z,65.7
2018-05-03T07:27:39.696Z,65.7
2018-05-03T07:28:41.133Z,65.8
2018-05-03T07:29:42.565Z,65.4
2018-05-03T07:30:44.000Z,65.5
2018-05-03T07:31:45.433Z,65.2
2018-05-03T07:32:46.845Z,64.8
2018-05-03T07:33:48.311Z,64.5
2018-05-03T07:34:49.805Z,64.9
2018-05-03T07:35:51.166Z,64.7
2018-05-03T07:36:52.685Z,64.7
2018-05-03T07:37:54.403Z,64.4
2018-05-03T07:38:56.006Z,64.4
2018-05-03T07:39:57.656Z,64.3
2018-05-03T07:40:59.251Z,64.1
2018-05-03T07:42:00.869Z,64.0
2018-05-03T07:43:02.445Z,64.2
2018-05-03T07:44:04.020Z,64.3
2018-05-03T07:45:05.654Z,64.2
2018-05-03T07:46:07.274Z,64.5
2018-05-03T07:47:08.954Z,63.9
2018-05-03T07:48:10.405Z,64.0
2018-05-03T07:49:11.815Z,63.7
2018-05-03T07:50:13.217Z,63.9
2018-05-03T07:51:14.652Z,63.6
2018-05-03T07:52:16.067Z,63.9
2018-05-03T07:53:17.461Z,63.7
2018-05-03T07:54:18.849Z,63.8
2018-05-03T07:55:20.295Z,63.8
2018-05-03T07:56:21.689Z,64.3
2018-05-03T07:57:23.109Z,63.4
2018-05-03T07:58:24.582Z,63.4
2018-05-03T07:59:26.047Z,63.4
2018-05-03T08:00:27.543Z,63.8
2018-05-03T08:01:28.922Z,63.4
2018-05-03T08:02:30.320Z,63.2
2018-05-03T08:03:31.769Z,63.2
2018-05-03T08:04:33.278Z,62.8
2018-05-03T08:05:34.745Z,62.8
2018-05-03T08:06:36.279Z,63.0
2018-05-03T08:07:37.789Z,63.2
2018-05-03T08:08:39.199Z,62.7
2018-05-03T08:09:40.663Z,63.2
2018-05-03T08:10:42.130Z,62.5
2018-05-03T08:11:43.539Z,62.6
2018-05-03T08:12:45.017Z,62.7
2018-05-03T08:13:46.412Z,62.8
2018-05-03T08:14:47.871Z,62.9
2018-05-03T08:15:49.332Z,62.8
2018-05-03T08:16:50.735Z,62.6
2018-05-03T08:17:52.192Z,62.2
2018-05-03T08:18:53.567Z,62.5
2018-05-03T08:19:55.130Z,62.6
2018-05-03T08:20:56.602Z,62.4
2018-05-03T08:21:58.069Z,62.6
2018-05-03T08:22:59.583Z,62.0
2018-05-03T08:24:01.028Z,62.2
2018-05-03T08:25:02.436Z,62.0
2018-05-03T08:26:03.806Z,62.1
2018-05-03T08:27:05.228Z,62.2
2018-05-03T08:28:06.703Z,61.4
2018-05-03T08:29:08.140Z,61.7
2018-05-03T08:30:09.564Z,61.8
2018-05-03T08:31:11.007Z,61.7
2018-05-03T08:32:12.493Z,62.0
2018-05-03T08:33:14.043Z,61.3
2018-05-03T08:34:15.626Z,61.6
2018-05-03T08:35:17.418Z,61.7
2018-05-03T08:36:18.901Z,61.2
2018-05-03T08:37:20.409Z,61.0
2018-05-03T08:38:21.843Z,61.4
2018-05-03T08:39:23.348Z,61.0
2018-05-03T08:40:24.776Z,60.9
2018-05-03T08:41:26.280Z,61.2
2018-05-03T08:42:27.703Z,61.3
2018-05-03T08:43:29.170Z,60.9
2018-05-03T08:44:30.619Z,60.9
2018-05-03T08:45:32.013Z,60.9
2018-05-03T08:46:33.432Z,60.4
2018-05-03T08:47:34.818Z,60.3
2018-05-03T08:48:36.337Z,60.1
2018-05-03T08:49:37.849Z,59.9
2018-05-03T08:50:39.298Z,60.0
2018-05-03T08:51:40.746Z,59.9
2018-05-03T08:52:42.166Z,59.4
2018-05-03T08:53:43.608Z,59.8
2018-05-03T08:54:45.050Z,58.9
2018-05-03T08:55:46.589Z,58.7
2018-05-03T08:56:47.966Z,58.9
2018-05-03T08:57:49.355Z,59.1
2018-05-03T08:58:50.781Z,58.4
2018-05-03T08:59:52.283Z,58.7
2018-05-03T09:00:53.787Z,58.6
2018-05-03T09:01:55.213Z,58.2
2018-05-03T09:02:56.638Z,58.2
2018-05-03T09:03:58.131Z,57.6
2018-05-03T09:04:59.582Z,57.9
2018-05-03T09:06:01.102Z,57.9
2018-05-03T09:07:02.553Z,57.8
2018-05-03T09:08:03.985Z,57.6
2018-05-03T09:09:05.432Z,57.3
2018-05-03T09:10:06.969Z,57.3
2018-05-03T09:11:08.467Z,57.6
2018-05-03T09:12:09.920Z,57.5
2018-05-03T09:13:11.390Z,57.6
2018-05-03T09:14:55.276Z,57.4
2018-05-03T09:15:56.702Z,56.7
2018-05-03T09:16:58.075Z,56.7
2018-05-03T09:17:59.472Z,56.8
2018-05-03T09:19:00.838Z,56.3
2018-05-03T09:20:02.209Z,56.1
2018-05-03T09:21:03.621Z,56.1
2018-05-03T09:22:04.981Z,55.2
2018-05-03T09:23:06.351Z,55.3
2018-05-03T09:24:07.782Z,55.6
2018-05-03T09:25:09.162Z,54.7
2018-05-03T09:26:10.604Z,54.7
2018-05-03T09:27:11.990Z,54.8
2018-05-03T09:28:13.339Z,54.5
2018-05-03T09:29:14.711Z,53.8
2018-05-03T09:30:16.120Z,53.2
2018-05-03T09:31:17.491Z,52.9
2018-05-03T09:32:18.886Z,52.4
2018-05-03T09:33:20.266Z,52.3
2018-05-03T09:34:21.643Z,52.3
2018-05-03T09:35:23.021Z,52.3
2018-05-03T09:36:24.402Z,51.7
2018-05-03T09:37:25.791Z,51.3
2018-05-03T09:38:27.177Z,51.5
2018-05-03T09:39:28.562Z,51.4
2018-05-03T09:40:29.957Z,51.5
2018-05-03T09:41:31.340Z,51.1
2018-05-03T09:42:32.726Z,51.0
2018-05-03T09:43:34.107Z,51.1
2018-05-03T09:44:35.506Z,50.7
2018-05-03T09:45:37.011Z,50.8
2018-05-03T09:46:38.669Z,50.6
2018-05-03T09:47:40.166Z,51.1
2018-05-03T09:48:41.651Z,50.7
2018-05-03T09:49:43.066Z,51.1
2018-05-03T09:50:44.497Z,50.5
2018-05-03T09:51:45.866Z,50.2
2018-05-03T09:52:47.328Z,50.3
2018-05-03T09:53:48.782Z,50.4
2018-05-03T09:54:50.234Z,49.8
2018-05-03T09:55:51.642Z,50.1
2018-05-03T09:56:53.140Z,50.0
2018-05-03T09:57:54.544Z,49.5
2018-05-03T09:58:55.980Z,49.7
2018-05-03T09:59:57.442Z,49.2
2018-05-03T10:00:58.878Z,49.4
2018-05-03T10:02:00.300Z,49.4
2018-05-03T10:03:01.738Z,49.1
2018-05-03T10:04:03.262Z,49.3
2018-05-03T10:05:04.777Z,49.6
2018-05-03T10:06:06.191Z,49.4
2018-05-03T10:07:07.617Z,49.0
2018-05-03T10:08:09.025Z,48.7
2018-05-03T10:09:10.463Z,48.7
2018-05-03T10:10:12.699Z,48.8
2018-05-03T10:11:14.199Z,48.8
2018-05-03T10:12:15.635Z,48.7
2018-05-03T10:13:17.156Z,48.7
2018-05-03T10:14:18.502Z,48.9
2018-05-03T10:15:19.978Z,48.8
2018-05-03T10:16:21.458Z,48.7
2018-05-03T10:17:23.004Z,48.3
2018-05-03T10:18:24.458Z,48.4
2018-05-03T10:19:25.904Z,48.2
2018-05-03T10:20:27.385Z,48.4
2018-05-03T10:21:28.800Z,48.5
2018-05-03T10:22:30.252Z,48.0
2018-05-03T10:23:31.637Z,48.2
2018-05-03T10:24:33.132Z,48.2
2018-05-03T10:25:34.543Z,48.5
2018-05-03T10:26:36.010Z,47.8
2018-05-03T10:27:37.513Z,47.8
2018-05-03T10:28:38.984Z,47.8
2018-05-03T10:29:40.494Z,47.9
2018-05-03T10:30:41.910Z,47.1
2018-05-03T10:31:43.309Z,47.6
2018-05-03T10:32:45.078Z,47.4
2018-05-03T10:33:46.494Z,47.6
2018-05-03T10:34:47.878Z,47.7
2018-05-03T10:35:49.333Z,47.6
2018-05-03T10:36:50.718Z,47.2
2018-05-03T10:37:52.174Z,47.3
2018-05-03T10:38:53.623Z,47.1
2018-05-03T10:39:55.045Z,47.3
2018-05-03T10:40:56.944Z,47.0
2018-05-03T10:41:58.439Z,47.0
2018-05-03T10:42:59.788Z,46.9
2018-05-03T10:44:01.246Z,46.8
2018-05-03T10:45:02.709Z,46.6
2018-05-03T10:46:04.141Z,47.0
2018-05-03T10:47:06.442Z,46.7
2018-05-03T10:48:07.860Z,46.6
2018-05-03T10:49:09.304Z,46.5
2018-05-03T10:50:10.695Z,46.2
2018-05-03T10:51:12.078Z,46.2
2018-05-03T10:52:13.497Z,46.2
2018-05-03T10:53:14.916Z,46.2
2018-05-03T10:54:16.330Z,46.3
2018-05-03T10:55:17.760Z,46.1
2018-05-03T10:56:19.280Z,46.6
2018-05-03T10:57:20.728Z,46.7
2018-05-03T10:58:22.284Z,46.8
2018-05-03T10:59:23.726Z,46.9
2018-05-03T11:00:25.188Z,46.9
2018-05-03T11:01:26.642Z,46.1
2018-05-03T11:02:28.049Z,46.2
2018-05-03T11:03:29.459Z,46.2
2018-05-03T11:04:30.898Z,46.2
2018-05-03T11:05:32.402Z,46.3
2018-05-03T11:06:34.475Z,46.3
2018-05-03T11:07:35.997Z,46.0
2018-05-03T11:08:37.401Z,45.2
2018-05-03T11:09:38.833Z,44.8
2018-05-03T11:10:40.299Z,45.1
2018-05-03T11:12:21.209Z,44.7
2018-05-03T11:13:22.598Z,44.1
2018-05-03T11:14:23.976Z,44.0
2018-05-03T11:15:25.363Z,44.0
2018-05-03T11:16:26.753Z,44.4
2018-05-03T11:17:28.146Z,44.2
2018-05-03T11:18:29.531Z,44.2
2018-05-03T11:19:30.954Z,44.1
2018-05-03T11:20:32.324Z,44.1
2018-05-03T11:21:33.709Z,44.5
2018-05-03T11:22:35.097Z,44.3
2018-05-03T11:23:36.491Z,44.5
2018-05-03T11:24:37.876Z,44.5
2018-05-03T11:25:39.288Z,44.6
2018-05-03T11:26:40.679Z,44.3
2018-05-03T11:27:42.071Z,44.6
2018-05-03T11:28:43.453Z,44.3
2018-05-03T11:29:44.943Z,44.2
2018-05-03T11:30:46.349Z,44.1
2018-05-03T11:31:47.918Z,44.5
2018-05-03T11:32:49.329Z,44.1
2018-05-03T11:33:50.762Z,43.7
2018-05-03T11:34:52.143Z,44.0
2018-05-03T11:35:53.525Z,43.9
2018-05-03T11:36:55.001Z,43.7
2018-05-03T11:37:56.491Z,43.8
2018-05-03T11:38:57.907Z,44.0
2018-05-03T11:39:59.389Z,44.0
2018-05-03T11:41:01.107Z,43.7
2018-05-03T11:42:02.496Z,42.9
2018-05-03T11:43:03.913Z,43.2
2018-05-03T11:44:05.588Z,43.2
2018-05-03T11:45:07.001Z,43.1
2018-05-03T11:46:08.593Z,43.3
2018-05-03T11:47:10.077Z,43.1
2018-05-03T11:48:11.490Z,43.4
2018-05-03T11:49:12.871Z,42.9
2018-05-03T11:50:14.284Z,43.1
2018-05-03T11:51:15.760Z,42.6
2018-05-03T11:52:17.172Z,42.5
2018-05-03T11:53:18.571Z,42.4
2018-05-03T11:54:19.963Z,42.7
2018-05-03T11:55:21.422Z,42.2
2018-05-03T11:56:22.838Z,42.9
2018-05-03T11:57:24.388Z,42.0
2018-05-03T11:58:25.806Z,42.5
2018-05-03T11:59:27.276Z,41.5
2018-05-03T12:00:28.880Z,41.9
2018-05-03T12:01:30.317Z,41.9
2018-05-03T12:02:31.859Z,41.9
2018-05-03T12:03:33.270Z,41.7
2018-05-03T12:04:34.729Z,41.6
2018-05-03T12:05:36.173Z,41.7
2018-05-03T12:06:37.682Z,41.7
2018-05-03T12:07:39.179Z,41.9
2018-05-03T12:08:40.828Z,41.6
2018-05-03T12:09:42.441Z,41.9
2018-05-03T12:10:43.940Z,41.6
2018-05-03T12:11:45.800Z,41.7
2018-05-03T12:12:47.183Z,41.2
2018-05-03T12:13:48.647Z,41.4
2018-05-03T12:14:50.100Z,41.4
2018-05-03T12:15:51.558Z,40.8
2018-05-03T12:16:53.231Z,41.3
2018-05-03T12:17:54.642Z,41.3
2018-05-03T12:18:56.101Z,40.8
2018-05-03T12:19:57.761Z,40.7
2018-05-03T12:20:59.242Z,40.6
2018-05-03T12:22:00.685Z,41.1
2018-05-03T12:23:02.345Z,40.9
2018-05-03T12:24:03.764Z,41.4
2018-05-03T12:25:05.233Z,41.5
2018-05-03T12:26:06.674Z,41.3
2018-05-03T12:27:08.136Z,41.4
2018-05-03T12:28:09.586Z,41.4
2018-05-03T12:29:11.274Z,41.4
2018-05-03T12:30:12.699Z,41.7
2018-05-03T12:31:14.117Z,41.4
2018-05-03T12:32:15.582Z,41.0
2018-05-03T12:33:17.018Z,41.0
2018-05-03T12:34:18.427Z,41.1
2018-05-03T12:35:19.960Z,40.6
2018-05-03T12:36:21.400Z,40.5
2018-05-03T12:37:22.915Z,40.6
2018-05-03T12:38:24.340Z,40.6
2018-05-03T12:39:25.773Z,40.5
2018-05-03T12:40:27.361Z,40.3
2018-05-03T12:41:28.792Z,39.9
2018-05-03T12:42:30.240Z,39.8
2018-05-03T12:43:31.620Z,39.5
2018-05-03T12:44:34.518Z,39.6
2018-05-03T12:45:36.098Z,39.7
2018-05-03T12:46:37.523Z,39.1
2018-05-03T12:47:38.930Z,39.4
2018-05-03T12:48:40.384Z,39.5
2018-05-03T12:49:41.838Z,39.6
2018-05-03T12:50:43.258Z,39.7
2018-05-03T12:51:44.716Z,40.3
2018-05-03T12:52:46.138Z,40.2
2018-05-03T12:53:47.661Z,40.5
2018-05-03T12:54:49.079Z,40.6
2018-05-03T12:55:50.549Z,40.5
2018-05-03T12:56:51.956Z,40.9
2018-05-03T12:57:53.373Z,41.2
2018-05-03T12:58:54.835Z,41.4
2018-05-03T12:59:56.264Z,41.8
2018-05-03T13:00:57.700Z,41.4
2018-05-03T13:01:59.134Z,41.6
2018-05-03T13:03:00.601Z,41.5
2018-05-03T13:04:02.032Z,41.4
2018-05-03T13:05:03.448Z,41.8
2018-05-03T13:06:04.961Z,41.5
2018-05-03T13:07:06.588Z,41.7
2018-05-03T13:08:08.139Z,41.5
2018-05-03T13:09:09.595Z,41.7
2018-05-03T13:10:11.013Z,41.5
2018-05-03T13:11:12.443Z,41.4
2018-05-03T13:12:13.896Z,41.4
2018-05-03T13:13:15.386Z,41.4
2018-05-03T13:14:16.873Z,41.4
2018-05-03T13:15:18.218Z,41.5
2018-05-03T13:16:19.632Z,41.5
2018-05-03T13:17:21.021Z,41.6
2018-05-03T13:18:22.443Z,41.6
2018-05-03T13:19:23.884Z,41.7
2018-05-03T13:20:25.308Z,41.0
2018-05-03T13:21:26.741Z,41.1
2018-05-03T13:22:28.337Z,41.3
2018-05-03T13:23:29.745Z,41.7
2018-05-03T13:24:31.292Z,40.7
2018-05-03T13:25:32.724Z,41.3
2018-05-03T13:26:34.152Z,41.5
2018-05-03T13:27:35.588Z,41.4
2018-05-03T13:28:37.028Z,41.9
2018-05-03T13:29:38.542Z,41.8
2018-05-03T13:30:39.967Z,41.3
2018-05-03T13:31:41.390Z,40.7
2018-05-03T13:32:42.813Z,41.0
2018-05-03T13:33:44.215Z,40.5
2018-05-03T13:34:45.701Z,40.4
2018-05-03T13:35:47.245Z,40.5
2018-05-03T13:36:49.444Z,40.7
2018-05-03T13:37:50.900Z,40.5
2018-05-03T13:38:52.307Z,40.7